Time;durP1;ratioP1;P1;durP2;ratioP2;P2;SDS_P1;SDS_P2;PMS_P1;PMS_P2;Temp;Humidity;BMP_temperature;BMP_pressure;BME280_temperature;BME280_humidity;BME280_pressure;Samples;Min_cycle;Max_cycle;Signal;HPM_P1;HPM_P2
2022/01/04 00:00:14;;;;;;;80.38;17.65;;;;;;;2.82;100.00;94299.59;4980224;28;20034;-86
2022/01/04 00:02:40;;;;;;;617.95;36.65;;;;;;;2.76;100.00;94290.13;4979720;28;20030;-86
2022/01/04 00:05:06;;;;;;;79.18;17.25;;;;;;;2.87;100.00;94296.34;4963857;28;20053;-86
2022/01/04 00:07:33;;;;;;;669.50;48.40;;;;;;;2.68;100.00;94296.41;4997310;28;20046;-86
2022/01/04 00:09:59;;;;;;;604.47;46.13;;;;;;;2.61;100.00;94287.91;4979621;28;20105;-86
2022/01/04 00:15:11;;;;;;;152.77;20.60;;;;;;;2.98;100.00;94295.59;4982515;28;20040;-86
2022/01/04 00:17:37;;;;;;;595.30;40.60;;;;;;;2.66;100.00;94273.31;4995501;28;20034;-87
2022/01/04 00:20:04;;;;;;;150.23;20.75;;;;;;;2.76;100.00;94283.13;4995772;28;20026;-87
2022/01/04 00:22:30;;;;;;;236.75;22.42;;;;;;;2.76;100.00;94279.78;4979635;28;20037;-87
2022/01/04 00:24:55;;;;;;;461.45;33.95;;;;;;;2.53;100.00;94282.06;4996286;28;20034;-87
2022/01/04 00:27:20;;;;;;;29.30;14.27;;;;;;;2.72;100.00;94269.06;4979482;28;20041;-87
2022/01/04 00:29:50;;;;;;;31.95;14.23;;;;;;;2.89;100.00;94264.06;4997055;28;20034;-86
2022/01/04 00:32:16;;;;;;;33.25;14.98;;;;;;;2.90;100.00;94257.06;4995828;28;20042;-87
2022/01/04 00:34:41;;;;;;;33.90;14.77;;;;;;;2.91;100.00;94261.25;4997009;28;20049;-87
2022/01/04 00:37:07;;;;;;;23.58;11.20;;;;;;;3.03;100.00;94259.47;4996111;28;20446;-86
2022/01/04 00:39:33;;;;;;;34.40;14.80;;;;;;;3.04;100.00;94252.50;4995852;28;20065;-87
2022/01/04 00:41:59;;;;;;;31.70;14.48;;;;;;;2.84;100.00;94250.97;4995490;28;20443;-87
2022/01/04 00:44:25;;;;;;;28.95;13.15;;;;;;;3.14;100.00;94259.72;4995826;28;20356;-87
2022/01/04 00:46:51;;;;;;;35.17;14.48;;;;;;;3.14;100.00;94250.16;4979540;28;20034;-86
2022/01/04 00:49:17;;;;;;;32.70;13.40;;;;;;;3.37;100.00;94249.41;4996646;28;20064;-86
2022/01/04 00:51:48;;;;;;;28.00;12.05;;;;;;;3.26;100.00;94247.59;4996585;28;20040;-86
2022/01/04 00:54:16;;;;;;;37.80;12.93;;;;;;;3.84;100.00;94240.03;4982560;28;20085;-87
2022/01/04 00:56:42;;;;;;;34.78;13.40;;;;;;;3.90;100.00;94238.34;4999496;28;20042;-86
2022/01/04 00:59:07;;;;;;;30.98;12.60;;;;;;;4.01;100.00;94234.91;4982929;28;20084;-86
2022/01/04 01:01:34;;;;;;;27.35;12.55;;;;;;;3.98;100.00;94235.38;4999623;28;20037;-86
2022/01/04 01:03:59;;;;;;;182.40;16.33;;;;;;;3.51;100.00;94228.44;4982830;28;20065;-86
2022/01/04 01:06:25;;;;;;;29.15;11.88;;;;;;;3.49;100.00;94231.25;4998748;28;20030;-87
2022/01/04 01:08:51;;;;;;;26.67;10.57;;;;;;;3.64;100.00;94237.78;4999237;28;20062;-87
2022/01/04 01:11:17;;;;;;;27.48;11.68;;;;;;;3.68;100.00;94226.75;4998600;28;20125;-87
2022/01/04 01:13:43;;;;;;;22.85;10.60;;;;;;;3.58;100.00;94233.50;4999234;28;20113;-86
2022/01/04 01:16:09;;;;;;;27.20;12.05;;;;;;;3.21;100.00;94222.38;4998454;28;20042;-86
2022/01/04 01:18:35;;;;;;;29.05;11.70;;;;;;;3.21;100.00;94221.56;4999686;28;20058;-87
2022/01/04 01:21:02;;;;;;;28.33;12.48;;;;;;;3.31;100.00;94211.44;4998685;28;20047;-86
2022/01/04 01:23:28;;;;;;;30.30;12.30;;;;;;;3.30;100.00;94227.19;4998818;28;20038;-86
2022/01/04 01:25:54;;;;;;;29.02;11.93;;;;;;;3.34;100.00;94210.22;4998737;28;20038;-87
2022/01/04 01:28:19;;;;;;;34.85;13.30;;;;;;;3.40;100.00;94217.06;4998558;28;20070;-86
2022/01/04 01:30:45;;;;;;;25.33;11.57;;;;;;;3.46;100.00;94223.16;4998274;28;20096;-87
2022/01/04 01:33:11;;;;;;;29.27;11.82;;;;;;;3.63;100.00;94212.91;5000012;28;20074;-87
2022/01/04 01:35:37;;;;;;;27.65;12.13;;;;;;;3.53;100.00;94218.66;4998475;28;20088;-87
2022/01/04 01:38:05;;;;;;;37.65;12.55;;;;;;;3.66;100.00;94221.00;4998518;28;20041;-87
2022/01/04 01:40:31;;;;;;;25.05;11.52;;;;;;;3.84;100.00;94228.88;4997917;28;20038;-87
2022/01/04 01:42:57;;;;;;;27.25;10.95;;;;;;;3.77;100.00;94227.19;4998447;28;20093;-86
2022/01/04 01:45:23;;;;;;;29.48;12.40;;;;;;;3.75;100.00;94226.63;4998374;28;20034;-86
2022/01/04 01:47:49;;;;;;;35.95;12.63;;;;;;;4.01;100.00;94240.09;4998249;28;20042;-86
2022/01/04 01:50:14;;;;;;;23.60;11.23;;;;;;;3.99;100.00;94242.13;4981627;28;20030;-86
2022/01/04 01:52:41;;;;;;;27.33;12.18;;;;;;;3.95;100.00;94241.03;4981494;28;20405;-86
2022/01/04 01:55:06;;;;;;;27.88;11.95;;;;;;;4.02;100.00;94235.72;4998187;28;20034;-86
2022/01/04 01:57:32;;;;;;;25.23;11.18;;;;;;;3.98;100.00;94239.78;4997792;28;20046;-87
2022/01/04 01:59:58;;;;;;;29.42;11.88;;;;;;;3.97;100.00;94233.81;4998066;28;20447;-86
2022/01/04 02:02:23;;;;;;;22.65;10.90;;;;;;;3.90;100.00;94226.16;4997685;28;20042;-87
2022/01/04 02:04:49;;;;;;;30.30;11.98;;;;;;;4.00;100.00;94222.19;4996644;28;20045;-87
2022/01/04 02:07:15;;;;;;;34.17;11.27;;;;;;;4.01;100.00;94227.13;4997838;28;20034;-87
2022/01/04 02:09:47;;;;;;;22.23;11.18;;;;;;;4.17;100.00;94214.50;4981930;28;20041;-86
2022/01/04 02:12:15;;;;;;;25.35;10.25;;;;;;;4.17;100.00;94207.50;4997275;28;20343;-86
2022/01/04 02:14:51;;;;;;;22.75;9.93;;;;;;;4.01;100.00;94190.84;4981757;28;20428;-86
2022/01/04 02:17:16;;;;;;;26.92;10.45;;;;;;;3.89;100.00;94187.50;4997722;28;20073;-86
2022/01/04 02:19:42;;;;;;;23.20;10.48;;;;;;;3.68;100.00;94185.28;4981333;28;20428;-87
2022/01/04 02:22:07;;;;;;;19.20;9.90;;;;;;;3.63;100.00;94192.19;4998691;28;20037;-87
2022/01/04 02:24:33;;;;;;;30.52;11.60;;;;;;;3.22;100.00;94182.50;5013930;28;20343;-86
2022/01/04 02:26:59;;;;;;;30.17;12.68;;;;;;;3.17;100.00;94184.19;4998460;28;20064;-87
2022/01/04 02:29:25;;;;;;;26.52;11.02;;;;;;;3.19;100.00;94184.75;4997565;28;20092;-87
2022/01/04 02:31:50;;;;;;;94.15;13.95;;;;;;;3.03;100.00;94184.41;4997087;28;20034;-86
2022/01/04 02:34:17;;;;;;;28.10;9.82;;;;;;;3.09;100.00;94186.13;4997026;28;20416;-86
2022/01/04 02:36:42;;;;;;;25.02;9.75;;;;;;;3.18;100.00;94183.97;4997424;28;20038;-86
2022/01/04 02:39:08;;;;;;;21.50;9.80;;;;;;;3.14;100.00;94174.28;4997379;28;20093;-87
2022/01/04 02:41:33;;;;;;;22.75;9.82;;;;;;;3.10;100.00;94173.94;4996905;28;20347;-87
2022/01/04 02:43:59;;;;;;;24.15;11.02;;;;;;;3.29;100.00;94173.81;4997438;28;20073;-87
2022/01/04 02:46:26;;;;;;;28.70;11.93;;;;;;;3.39;100.00;94179.22;4996881;28;20030;-87
2022/01/04 02:48:52;;;;;;;31.27;14.07;;;;;;;3.65;100.00;94177.19;4977912;28;20391;-87
2022/01/04 02:51:18;;;;;;;33.95;12.15;;;;;;;3.82;100.00;94178.03;4980853;28;20125;-86
2022/01/04 02:53:44;;;;;;;28.17;11.50;;;;;;;3.86;100.00;94177.59;4979985;28;20041;-87
2022/01/04 02:56:11;;;;;;;26.70;11.32;;;;;;;3.64;100.00;94173.78;4987500;28;20038;-86
2022/01/04 02:58:37;;;;;;;26.95;11.98;;;;;;;3.67;100.00;94172.56;4961613;28;20034;-86
2022/01/04 03:01:03;;;;;;;29.15;11.82;;;;;;;3.62;100.00;94164.69;4976856;28;20042;-87
2022/01/04 03:03:30;;;;;;;25.38;11.07;;;;;;;3.59;100.00;94154.78;4977484;28;20105;-87
2022/01/04 03:05:55;;;;;;;23.27;10.98;;;;;;;3.64;100.00;94165.25;4961407;28;20033;-87
2022/01/04 03:08:21;;;;;;;24.35;10.68;;;;;;;3.70;100.00;94155.78;4977275;28;20129;-87
2022/01/04 03:10:47;;;;;;;28.05;12.38;;;;;;;3.62;100.00;94138.78;4978141;28;20050;-87
2022/01/04 03:13:13;;;;;;;29.45;12.15;;;;;;;3.52;100.00;94139.38;4978355;28;20198;-87
2022/01/04 03:15:39;;;;;;;34.15;12.00;;;;;;;3.51;100.00;94141.16;4978000;28;20421;-87
2022/01/04 03:18:04;;;;;;;33.35;12.63;;;;;;;3.37;100.00;94129.47;4961108;28;20122;-87
2022/01/04 03:20:30;;;;;;;27.77;11.95;;;;;;;3.18;100.00;94124.44;4960743;28;20429;-87
2022/01/04 03:22:55;;;;;;;735.85;38.72;;;;;;;2.68;100.00;94123.84;4961108;28;20031;-87
2022/01/04 03:25:21;;;;;;;41.42;12.63;;;;;;;3.02;100.00;94122.53;4960815;28;20034;-87
2022/01/04 03:27:46;;;;;;;36.47;14.73;;;;;;;2.94;100.00;94121.84;4945328;28;20027;-87
2022/01/04 03:30:12;;;;;;;34.80;13.82;;;;;;;2.89;100.00;94121.75;4960908;28;20034;-87
2022/01/04 03:32:37;;;;;;;39.55;15.38;;;;;;;3.42;100.00;94126.19;4960951;28;20415;-87
2022/01/04 03:35:03;;;;;;;31.65;14.13;;;;;;;3.39;100.00;94119.66;4961188;28;20030;-87
2022/01/04 03:37:29;;;;;;;34.22;14.82;;;;;;;3.30;100.00;94111.47;4960863;28;20030;-86
2022/01/04 03:39:54;;;;;;;38.35;15.05;;;;;;;3.38;100.00;94112.91;4960829;28;20125;-87
2022/01/04 03:42:20;;;;;;;32.38;13.68;;;;;;;3.64;100.00;94106.44;4960263;28;20444;-86
2022/01/04 03:44:45;;;;;;;31.05;12.05;;;;;;;3.71;100.00;94097.75;4977972;28;20058;-87
2022/01/04 03:47:13;;;;;;;30.00;12.98;;;;;;;3.61;100.00;94093.16;4978086;28;20037;-87
2022/01/04 03:49:38;;;;;;;31.48;11.95;;;;;;;3.46;100.00;94093.66;4978304;28;20034;-87
2022/01/04 03:52:06;;;;;;;32.75;12.77;;;;;;;3.51;100.00;94091.16;4960284;28;20027;-87
2022/01/04 03:54:32;;;;;;;23.02;11.18;;;;;;;3.67;100.00;94105.19;4978176;28;20035;-86
2022/01/04 03:56:57;;;;;;;27.50;11.85;;;;;;;3.74;100.00;94098.09;4960707;28;20030;-87
2022/01/04 03:59:22;;;;;;;30.65;10.75;;;;;;;3.98;100.00;94097.22;4944855;28;20078;-87
2022/01/04 04:01:49;;;;;;;22.67;9.98;;;;;;;4.05;100.00;94090.88;4977569;28;20023;-86
2022/01/04 04:04:16;;;;;;;25.98;9.45;;;;;;;3.98;100.00;94074.66;4960933;28;20325;-87
2022/01/04 04:06:41;;;;;;;17.83;8.20;;;;;;;4.01;100.00;94086.38;4961032;28;20069;-87
2022/01/04 04:09:07;;;;;;;24.15;9.13;;;;;;;4.04;100.00;94078.13;4960810;28;20062;-87
2022/01/04 04:11:32;;;;;;;23.98;8.93;;;;;;;3.90;100.00;94064.69;4960195;28;20502;-87
2022/01/04 04:13:57;;;;;;;22.48;8.60;;;;;;;3.90;100.00;94054.31;4977149;28;20038;-87
2022/01/04 04:16:23;;;;;;;21.40;8.60;;;;;;;3.81;100.00;94048.72;4982770;28;20093;-87
2022/01/04 04:18:48;;;;;;;25.48;8.77;;;;;;;3.80;100.00;94054.88;4978084;28;20023;-87
2022/01/04 04:21:14;;;;;;;23.58;8.57;;;;;;;3.71;100.00;94044.09;4976220;28;20027;-86
2022/01/04 04:23:39;;;;;;;18.95;8.63;;;;;;;3.80;100.00;94047.13;4976320;28;20046;-87
2022/01/04 04:26:06;;;;;;;22.20;8.50;;;;;;;3.78;100.00;94033.59;4976874;28;20023;-87
2022/01/04 04:28:32;;;;;;;22.23;7.82;;;;;;;3.82;100.00;94024.38;4988796;28;20182;-87
2022/01/04 04:30:57;;;;;;;20.92;8.30;;;;;;;3.94;100.00;94021.72;4991747;28;20107;-87
2022/01/04 04:33:23;;;;;;;24.00;7.38;;;;;;;3.99;100.00;94026.19;4985114;28;20046;-87
2022/01/04 04:35:48;;;;;;;18.58;7.43;;;;;;;4.00;100.00;94022.59;4964196;28;20026;-87
2022/01/04 04:38:14;;;;;;;15.40;6.40;;;;;;;3.90;100.00;94021.38;4981572;28;20170;-87
2022/01/04 04:40:39;;;;;;;24.30;7.78;;;;;;;3.66;100.00;94011.16;4979586;28;20031;-87
2022/01/04 04:43:06;;;;;;;18.27;7.30;;;;;;;3.73;100.00;94005.03;4964064;28;20027;-87
2022/01/04 04:45:31;;;;;;;21.75;7.13;;;;;;;3.96;100.00;94022.25;4980274;28;20067;-86
2022/01/04 04:47:57;;;;;;;18.88;6.95;;;;;;;3.85;100.00;94028.28;4979895;28;20042;-87
2022/01/04 04:50:22;;;;;;;19.85;7.72;;;;;;;3.86;100.00;94030.66;4979798;28;20034;-87
2022/01/04 04:52:47;;;;;;;17.80;7.35;;;;;;;3.99;100.00;94041.75;4979867;28;20034;-87
2022/01/04 04:55:13;;;;;;;24.23;8.95;;;;;;;4.00;100.00;94020.75;4979962;28;20058;-86
2022/01/04 04:57:39;;;;;;;26.15;7.82;;;;;;;4.11;100.00;94011.38;4980950;28;20041;-87
2022/01/04 05:00:15;;;;;;;20.42;6.95;;;;;;;4.07;100.00;94011.03;4980945;28;20026;-87
2022/01/04 05:02:40;;;;;;;19.60;6.50;;;;;;;4.18;100.00;94024.94;4980093;28;20045;-87
2022/01/04 05:05:07;;;;;;;14.38;6.65;;;;;;;4.13;100.00;94009.31;4979633;28;20026;-87
2022/01/04 05:07:36;;;;;;;24.08;6.97;;;;;;;4.20;100.00;94004.75;4979506;28;20027;-87
2022/01/04 05:10:03;;;;;;;16.42;6.28;;;;;;;4.14;100.00;94013.47;4979923;28;20466;-87
2022/01/04 05:12:29;;;;;;;22.83;5.97;;;;;;;4.14;100.00;94018.66;4979132;28;20039;-87
2022/01/04 05:14:54;;;;;;;19.38;7.07;;;;;;;4.18;100.00;94014.56;4979499;28;20499;-87
2022/01/04 05:17:29;;;;;;;18.50;6.63;;;;;;;4.33;100.00;94028.81;4963166;28;20054;-87
2022/01/04 05:19:54;;;;;;;23.13;6.45;;;;;;;4.22;100.00;94023.44;4994490;28;20093;-87
2022/01/04 05:22:20;;;;;;;12.98;6.10;;;;;;;4.18;100.00;94019.00;4963063;28;20022;-87
2022/01/04 05:24:45;;;;;;;16.58;6.80;;;;;;;4.26;100.00;94017.81;4979289;28;20019;-87
2022/01/04 05:27:13;;;;;;;15.57;5.97;;;;;;;4.15;100.00;94012.47;4980335;28;20027;-87
2022/01/04 05:29:41;;;;;;;15.40;5.90;;;;;;;4.32;100.00;94017.66;4980419;28;20034;-87
2022/01/04 05:32:07;;;;;;;18.98;5.45;;;;;;;4.27;100.00;94027.94;4995056;28;20038;-87
2022/01/04 05:34:33;;;;;;;23.58;5.65;;;;;;;4.39;100.00;94023.47;4979366;28;20336;-87
2022/01/04 05:36:59;;;;;;;12.70;4.72;;;;;;;4.70;100.00;94037.91;4980565;28;20057;-87
2022/01/04 05:39:24;;;;;;;13.45;5.57;;;;;;;5.30;100.00;94009.56;4979636;28;20034;-86
2022/01/04 05:41:50;;;;;;;19.30;6.57;;;;;;;5.08;100.00;94005.94;4978625;28;20034;-87
2022/01/04 05:44:16;;;;;;;20.00;6.72;;;;;;;5.01;100.00;94007.16;4979021;28;20027;-87
2022/01/04 05:46:41;;;;;;;14.02;3.80;;;;;;;4.72;100.00;93995.13;4978235;28;20038;-86
2022/01/04 05:49:07;;;;;;;15.43;7.18;;;;;;;5.21;100.00;94015.22;4978561;28;20026;-87
2022/01/04 05:51:32;;;;;;;18.38;6.47;;;;;;;5.27;100.00;93999.69;4978346;28;20026;-87
2022/01/04 05:53:58;;;;;;;14.00;6.40;;;;;;;5.23;100.00;93997.56;4978868;28;20420;-87
2022/01/04 05:56:24;;;;;;;17.52;6.22;;;;;;;5.18;100.00;93997.53;4980102;28;20033;-87
2022/01/04 05:58:50;;;;;;;13.90;5.15;;;;;;;5.20;100.00;93990.28;4978583;28;20443;-87
2022/01/04 06:01:18;;;;;;;14.90;5.10;;;;;;;5.41;100.00;93995.69;4962003;28;20031;-87
2022/01/04 06:03:46;;;;;;;7.68;4.03;;;;;;;5.48;100.00;93991.09;4978792;28;20041;-87
2022/01/04 06:06:12;;;;;;;8.98;4.50;;;;;;;5.64;100.00;93986.06;4979715;28;20113;-87
2022/01/04 06:08:38;;;;;;;12.88;5.93;;;;;;;4.93;100.00;93980.59;4978472;28;20050;-87
2022/01/04 06:11:04;;;;;;;11.48;5.55;;;;;;;4.41;100.00;93980.94;4962162;28;20042;-87
2022/01/04 06:16:13;;;;;;;17.23;8.07;;;;;;;4.30;100.00;94004.13;4992094;28;20413;-86
2022/01/04 06:18:41;;;;;;;21.52;7.97;;;;;;;4.09;100.00;93993.44;4978475;28;20117;-87
2022/01/04 06:21:07;;;;;;;15.93;7.97;;;;;;;3.99;100.00;94006.22;4965133;28;20424;-86
2022/01/04 06:23:33;;;;;;;22.90;8.40;;;;;;;4.20;100.00;93998.78;4980865;28;20093;-86
2022/01/04 06:25:58;;;;;;;20.75;8.70;;;;;;;4.21;100.00;93997.78;4992955;28;20022;-86
2022/01/04 06:28:24;;;;;;;14.68;7.10;;;;;;;4.19;100.00;93998.00;4977759;28;20333;-86
2022/01/04 06:30:50;;;;;;;16.02;6.28;;;;;;;4.38;100.00;94006.31;4977302;28;20041;-86
2022/01/04 06:33:19;;;;;;;15.23;7.45;;;;;;;4.38;100.00;93990.75;4976147;28;20058;-86
2022/01/04 06:35:46;;;;;;;19.25;7.35;;;;;;;4.38;100.00;93982.97;4987578;28;20041;-86
2022/01/04 06:38:11;;;;;;;18.13;7.00;;;;;;;4.12;100.00;93987.00;4978807;28;20073;-86
2022/01/04 06:40:37;;;;;;;21.60;8.18;;;;;;;4.26;100.00;93995.25;4977054;28;20453;-85
2022/01/04 06:43:02;;;;;;;13.27;6.15;;;;;;;4.00;100.00;93992.25;4977798;28;20035;-86
2022/01/04 06:45:30;;;;;;;17.17;7.20;;;;;;;4.01;100.00;93991.22;4961303;28;20423;-86
2022/01/04 06:47:57;;;;;;;14.65;7.22;;;;;;;4.24;100.00;94005.06;4978660;28;20491;-86
2022/01/04 06:50:23;;;;;;;21.58;7.65;;;;;;;4.01;100.00;93995.63;4976373;28;20072;-87
2022/01/04 06:52:48;;;;;;;17.45;7.05;;;;;;;4.03;100.00;93978.03;4982853;28;20495;-86
2022/01/04 06:55:15;;;;;;;24.05;6.63;;;;;;;3.95;100.00;93997.34;4996355;28;20125;-86
2022/01/04 06:57:41;;;;;;;21.50;6.60;;;;;;;3.93;100.00;93994.22;4997017;28;20496;-86
2022/01/04 07:00:07;;;;;;;12.07;5.47;;;;;;;3.81;100.00;93979.50;4996635;28;20121;-87
2022/01/04 07:02:33;;;;;;;16.95;6.15;;;;;;;4.03;100.00;93991.81;4996424;28;20129;-87
2022/01/04 07:04:59;;;;;;;16.77;6.72;;;;;;;3.94;100.00;93996.56;4998291;28;20063;-87
2022/01/04 07:07:24;;;;;;;15.68;6.63;;;;;;;3.88;100.00;93996.75;4997808;28;20424;-86
2022/01/04 07:09:50;;;;;;;25.02;9.23;;;;;;;3.92;100.00;94000.44;4996359;28;20038;-87
2022/01/04 07:12:15;;;;;;;19.20;8.15;;;;;;;4.03;100.00;93996.19;4997582;28;20030;-87
2022/01/04 07:14:42;;;;;;;22.80;8.65;;;;;;;4.30;100.00;94006.72;4980631;28;20041;-88
2022/01/04 07:17:08;;;;;;;21.13;8.30;;;;;;;4.36;100.00;93992.00;4996555;28;20034;-87
2022/01/04 07:19:33;;;;;;;15.55;5.72;;;;;;;4.28;100.00;93995.78;4996398;28;20355;-86
2022/01/04 07:21:59;;;;;;;22.95;8.93;;;;;;;4.44;100.00;94001.19;4979520;28;20042;-87
2022/01/04 07:24:25;;;;;;;15.60;6.32;;;;;;;4.65;100.00;93991.91;4980619;28;20030;-86
2022/01/04 07:26:51;;;;;;;15.73;6.15;;;;;;;4.76;100.00;93990.25;4980198;28;20034;-87
2022/01/04 07:29:17;;;;;;;18.50;6.13;;;;;;;4.56;100.00;93981.16;4996811;28;20034;-86
2022/01/04 07:31:45;;;;;;;20.45;6.35;;;;;;;4.58;100.00;93973.91;4995715;28;20030;-86
2022/01/04 07:34:11;;;;;;;13.45;6.00;;;;;;;4.63;100.00;93986.16;4980646;28;20061;-86
2022/01/04 07:36:36;;;;;;;13.63;6.50;;;;;;;4.75;100.00;93979.06;4996094;28;20137;-86
2022/01/04 07:39:02;;;;;;;17.63;6.68;;;;;;;4.66;100.00;93977.91;4996131;28;20073;-86
2022/01/04 07:41:29;;;;;;;12.68;6.18;;;;;;;4.78;100.00;93975.22;4995745;28;20053;-86
2022/01/04 07:43:54;;;;;;;17.80;6.05;;;;;;;4.98;100.00;93990.28;4997497;28;20344;-86
2022/01/04 07:46:21;;;;;;;13.68;6.10;;;;;;;4.99;100.00;93978.06;4997433;28;20026;-86
2022/01/04 07:48:49;;;;;;;20.02;7.25;;;;;;;5.12;100.00;93990.69;4996268;28;20030;-87
2022/01/04 07:51:14;;;;;;;17.50;5.75;;;;;;;5.29;100.00;93993.22;4996058;28;20125;-87
2022/01/04 07:53:40;;;;;;;16.77;4.70;;;;;;;5.63;100.00;93987.84;4997700;28;20480;-87
2022/01/04 07:56:06;;;;;;;16.95;5.43;;;;;;;5.74;100.00;93977.56;4995951;28;20034;-87
2022/01/04 07:58:31;;;;;;;12.20;5.32;;;;;;;6.00;100.00;93983.00;4995873;28;20054;-87
2022/01/04 08:00:57;;;;;;;13.65;5.53;;;;;;;6.12;100.00;93982.84;4995772;28;20030;-86
2022/01/04 08:03:23;;;;;;;13.30;5.10;;;;;;;6.25;100.00;93979.84;4999973;28;20084;-87
2022/01/04 08:05:51;;;;;;;13.32;4.80;;;;;;;6.31;100.00;93991.84;4991408;28;20026;-87
2022/01/04 08:08:19;;;;;;;12.52;4.93;;;;;;;6.37;100.00;93984.84;4986252;28;20125;-87
2022/01/04 08:10:48;;;;;;;8.10;3.72;;;;;;;6.42;100.00;93976.31;5000616;28;20125;-94
2022/01/04 08:13:14;;;;;;;12.60;4.95;;;;;;;6.41;100.00;93979.94;5000869;28;20030;-87
2022/01/04 08:15:39;;;;;;;12.55;4.70;;;;;;;6.27;100.00;93988.16;5000257;28;20038;-86
2022/01/04 08:18:05;;;;;;;15.10;4.18;;;;;;;6.33;100.00;93981.97;5000034;28;20030;-86
2022/01/04 08:20:30;;;;;;;9.30;4.63;;;;;;;6.45;100.00;93981.00;4983178;28;20042;-86
2022/01/04 08:22:57;;;;;;;18.10;4.88;;;;;;;6.60;100.00;93983.72;4999933;28;20117;-86
2022/01/04 08:25:22;;;;;;;12.90;5.07;;;;;;;6.53;100.00;93987.56;5000994;28;20038;-86
2022/01/04 08:27:49;;;;;;;12.95;5.55;;;;;;;6.54;100.00;93984.72;5001049;28;20436;-86
2022/01/04 08:30:15;;;;;;;15.13;5.13;;;;;;;6.70;100.00;93977.78;4983045;28;20030;-86
2022/01/04 08:32:41;;;;;;;24.33;7.25;;;;;;;6.89;100.00;93977.34;4999617;28;20041;-87
2022/01/04 08:35:09;;;;;;;11.52;5.10;;;;;;;6.98;100.00;93985.47;4999568;28;20480;-87
2022/01/04 08:37:34;;;;;;;11.25;4.75;;;;;;;7.04;100.00;93987.06;5000744;28;20045;-87
2022/01/04 08:40:00;;;;;;;23.20;5.10;;;;;;;7.20;100.00;93970.47;4999517;28;20363;-88
2022/01/04 08:42:26;;;;;;;8.93;3.95;;;;;;;7.31;100.00;93980.91;4999007;28;20034;-86
2022/01/04 08:44:55;;;;;;;10.77;5.20;;;;;;;7.45;100.00;93976.78;5000428;28;20058;-87
2022/01/04 08:47:20;;;;;;;10.25;4.20;;;;;;;7.59;100.00;93981.50;4999485;28;20432;-87
2022/01/04 08:49:45;;;;;;;10.95;4.00;;;;;;;7.90;100.00;93976.38;5000501;28;20037;-87
2022/01/04 08:52:11;;;;;;;10.05;4.22;;;;;;;7.94;100.00;93964.38;4998585;28;20034;-87
2022/01/04 08:54:38;;;;;;;8.27;3.83;;;;;;;8.04;100.00;93969.59;4983410;28;20420;-87
2022/01/04 08:57:04;;;;;;;11.15;3.95;;;;;;;8.17;100.00;93973.50;4999187;28;20088;-86
2022/01/04 08:59:32;;;;;;;10.90;3.70;;;;;;;8.02;100.00;93970.88;4979783;28;20082;-87
2022/01/04 09:01:59;;;;;;;13.93;5.82;;;;;;;8.16;100.00;93968.53;4995136;28;20042;-88
2022/01/04 09:04:25;;;;;;;10.60;4.28;;;;;;;8.09;100.00;93968.78;4980599;28;20042;-87
2022/01/04 09:06:51;;;;;;;11.23;4.72;;;;;;;8.19;100.00;93975.84;4980093;28;20336;-88
2022/01/04 09:09:19;;;;;;;13.15;7.05;;;;;;;8.31;100.00;93981.56;4980715;28;20040;-88
2022/01/04 09:11:45;;;;;;;9.68;5.43;;;;;;;8.40;100.00;93979.25;4994835;28;20078;-87
2022/01/04 09:19:26;;;;;;;11.27;3.72;;;;;;;8.30;100.00;93984.47;4979629;28;20041;-89
2022/01/04 09:21:54;;;;;;;10.43;4.05;;;;;;;8.37;100.00;93976.38;4978834;28;20108;-87
2022/01/04 09:24:20;;;;;;;12.65;3.95;;;;;;;8.39;100.00;93972.44;4995991;28;20031;-86
2022/01/04 09:26:47;;;;;;;7.95;3.67;;;;;;;8.47;100.00;93976.38;4979471;28;20344;-87
2022/01/04 09:29:12;;;;;;;9.00;3.58;;;;;;;8.60;100.00;93983.66;4979455;28;20031;-88
2022/01/04 09:31:38;;;;;;;12.00;3.65;;;;;;;8.53;100.00;93982.38;4978921;28;20435;-88
2022/01/04 09:34:04;;;;;;;8.23;3.70;;;;;;;8.60;100.00;93967.22;4995630;28;20110;-87
2022/01/04 09:36:38;;;;;;;7.75;3.40;;;;;;;8.66;100.00;93966.16;4979508;28;20435;-87
2022/01/04 09:39:07;;;;;;;7.30;3.83;;;;;;;8.49;100.00;93974.28;4978580;28;20035;-87
2022/01/04 09:41:32;;;;;;;9.70;4.10;;;;;;;8.35;100.00;93982.63;4978716;28;20073;-87
2022/01/04 09:43:58;;;;;;;9.50;4.25;;;;;;;8.06;100.00;93971.91;4995100;28;20133;-87
2022/01/04 09:46:24;;;;;;;13.70;4.28;;;;;;;8.10;100.00;93982.63;4978876;28;20034;-87
2022/01/04 09:48:50;;;;;;;10.25;4.40;;;;;;;8.33;100.00;93973.50;4995345;28;20121;-87
2022/01/04 09:51:16;;;;;;;12.40;4.60;;;;;;;8.47;100.00;93984.97;4978316;28;20500;-87
2022/01/04 09:53:41;;;;;;;12.20;4.55;;;;;;;8.52;100.00;93981.59;4978925;28;20053;-87
2022/01/04 09:56:07;;;;;;;16.75;4.82;;;;;;;8.06;100.00;93983.16;4962352;28;20044;-87
2022/01/04 09:58:32;;;;;;;13.27;5.85;;;;;;;7.65;100.00;93993.53;4978617;28;20499;-87
2022/01/04 10:00:58;;;;;;;12.73;6.22;;;;;;;7.92;100.00;93975.03;4978266;28;20034;-87
2022/01/04 10:03:29;;;;;;;10.70;5.35;;;;;;;7.85;100.00;93965.91;4978466;28;20109;-86
2022/01/04 10:06:09;;;;;;;12.32;5.80;;;;;;;7.67;100.00;93970.59;4979468;28;20026;-87
2022/01/04 10:08:52;;;;;;;12.43;4.95;;;;;;;7.55;100.00;93975.25;4994089;28;20440;-87
2022/01/04 10:11:29;;;;;;;14.30;6.47;;;;;;;7.42;100.00;93966.88;4979037;28;20121;-87
2022/01/04 10:13:54;;;;;;;14.02;6.43;;;;;;;7.49;100.00;93967.41;4978210;28;20030;-87
2022/01/04 10:16:20;;;;;;;11.70;5.65;;;;;;;7.70;100.00;93971.91;4978007;28;20046;-87
2022/01/04 10:18:50;;;;;;;12.32;5.38;;;;;;;7.93;100.00;93954.97;4979787;28;20041;-87
2022/01/04 10:21:17;;;;;;;15.05;7.25;;;;;;;8.08;100.00;93935.91;4978059;28;20038;-87
2022/01/04 10:23:49;;;;;;;11.68;5.82;;;;;;;8.02;100.00;93936.97;4979718;28;20038;-86
2022/01/04 10:26:16;;;;;;;15.43;5.95;;;;;;;8.30;100.00;93937.47;4978509;28;20037;-87
2022/01/04 10:28:44;;;;;;;10.95;4.90;;;;;;;8.15;100.00;93925.22;4978991;28;20039;-86
2022/01/04 10:31:14;;;;;;;6.47;3.08;;;;;;;8.79;100.00;93920.44;4993813;28;20356;-87
2022/01/04 10:33:40;;;;;;;5.28;2.65;;;;;;;8.96;100.00;93921.94;4993596;28;20053;-88
2022/01/04 10:36:15;;;;;;;13.43;5.72;;;;;;;8.58;100.00;93917.88;4978885;28;20038;-89
2022/01/04 10:38:46;;;;;;;2.95;1.70;;;;;;;9.63;100.00;93916.38;5013240;28;20165;-89
2022/01/04 10:41:26;;;;;;;11.60;3.72;;;;;;;10.07;100.00;93922.56;5013020;28;20041;-89
2022/01/04 10:44:02;;;;;;;4.10;1.60;;;;;;;10.30;100.00;93907.22;4978462;28;20042;-90
2022/01/04 10:46:41;;;;;;;7.53;1.30;;;;;;;10.30;100.00;93913.22;4976546;28;20043;-89
2022/01/04 10:49:20;;;;;;;3.08;0.98;;;;;;;10.31;100.00;93900.91;4978220;28;20030;-90
2022/01/04 10:51:47;;;;;;;66.50;34.55;;;;;;;10.34;100.00;93889.88;4982150;28;20030;-89
2022/01/04 10:54:18;;;;;;;3.03;1.50;;;;;;;10.27;100.00;93890.22;4961811;28;20348;-90
2022/01/04 10:56:47;;;;;;;6.72;1.48;;;;;;;10.36;100.00;93892.22;4977072;28;20424;-89
2022/01/04 10:59:13;;;;;;;22.67;12.02;;;;;;;10.32;100.00;93887.53;4967033;28;20041;-89
2022/01/04 11:01:39;;;;;;;5.18;1.85;;;;;;;10.62;100.00;93861.34;4978724;28;20038;-89
2022/01/04 11:04:12;;;;;;;3.65;1.63;;;;;;;10.49;100.00;93870.66;4976902;28;20526;-89
2022/01/04 11:06:38;;;;;;;4.88;1.60;;;;;;;10.57;100.00;93869.25;4977967;28;20033;-86
2022/01/04 11:09:08;;;;;;;4.13;1.83;;;;;;;10.54;100.00;93862.72;4984645;28;21208;-86
2022/01/04 11:11:34;;;;;;;113.32;35.15;;;;;;;10.58;100.00;93853.25;4989850;28;20030;-85
2022/01/04 11:14:00;;;;;;;64.97;34.95;;;;;;;10.58;100.00;93842.00;4988487;28;20044;-86
2022/01/04 11:16:27;;;;;;;6.80;2.45;;;;;;;10.54;100.00;93847.00;4997459;28;20041;-86
2022/01/04 11:18:55;;;;;;;5.18;1.60;;;;;;;10.47;100.00;93849.19;4980406;28;20034;-86
2022/01/04 11:21:32;;;;;;;15.77;6.50;;;;;;;10.70;100.00;93865.19;4980030;28;20056;-86
2022/01/04 11:23:58;;;;;;;13.82;6.32;;;;;;;10.34;100.00;93855.84;4977509;28;20046;-86
2022/01/04 11:26:25;;;;;;;7.15;3.28;;;;;;;10.21;100.00;93846.03;4980150;28;20026;-86
2022/01/04 11:28:52;;;;;;;96.15;35.63;;;;;;;10.31;100.00;93851.16;4980110;28;20109;-86